Time;durP1;ratioP1;P1;durP2;ratioP2;P2;SDS_P1;SDS_P2;PMS_P1;PMS_P2;Temp;Humidity;BMP_temperature;BMP_pressure;BME280_temperature;BME280_humidity;BME280_pressure;Samples;Min_cycle;Max_cycle;Signal;HPM_P1;HPM_P2
2023/06/15 00:01:28;;;;;;;6.07;2.05;;;;;;;;;;5058802;28;20024;-79
2023/06/15 00:03:54;;;;;;;2.90;1.92;;;;;;;;;;5056484;28;20503;-78
2023/06/15 00:06:20;;;;;;;3.67;1.92;;;;;;;;;;5059863;28;20449;-79
2023/06/15 00:08:45;;;;;;;4.07;1.90;;;;;;;;;;5060877;28;20061;-78
2023/06/15 00:11:10;;;;;;;2.97;2.05;;;;;;;;;;5079109;28;20035;-78
2023/06/15 00:13:36;;;;;;;2.80;1.90;;;;;;;;;;5063623;28;20493;-78
2023/06/15 00:16:01;;;;;;;3.05;1.85;;;;;;;;;;5075711;28;20078;-79
2023/06/15 00:18:26;;;;;;;2.83;1.90;;;;;;;;;;5060280;28;20393;-78
2023/06/15 00:20:53;;;;;;;3.78;1.98;;;;;;;;;;5059508;28;20024;-79
2023/06/15 00:23:23;;;;;;;3.60;1.75;;;;;;;;;;5081763;28;20032;-78
2023/06/15 00:25:49;;;;;;;3.25;1.98;;;;;;;;;;5073767;28;20031;-77
2023/06/15 00:28:14;;;;;;;3.22;1.80;;;;;;;;;;5062164;28;20025;-79
2023/06/15 00:30:40;;;;;;;5.53;2.17;;;;;;;;;;5080846;28;20384;-79
2023/06/15 00:33:05;;;;;;;3.65;1.88;;;;;;;;;;5072385;28;20031;-78
2023/06/15 00:35:30;;;;;;;2.58;1.85;;;;;;;;;;5058292;28;20035;-78
2023/06/15 00:37:56;;;;;;;2.72;1.92;;;;;;;;;;5074210;28;20093;-79
2023/06/15 00:40:21;;;;;;;3.35;1.95;;;;;;;;;;5052499;28;20043;-78
2023/06/15 00:42:47;;;;;;;2.90;1.88;;;;;;;;;;5059314;28;20510;-78
2023/06/15 00:45:12;;;;;;;9.07;2.10;;;;;;;;;;5066362;28;20089;-77
2023/06/15 00:47:39;;;;;;;2.88;1.90;;;;;;;;;;5051707;28;20031;-79
2023/06/15 00:50:15;;;;;;;4.22;2.08;;;;;;;;;;5054201;28;20129;-79
2023/06/15 00:52:40;;;;;;;2.75;2.00;;;;;;;;;;5051031;28;20461;-79
2023/06/15 00:55:11;;;;;;;2.70;1.80;;;;;;;;;;5075621;28;20031;-79
2023/06/15 00:57:43;;;;;;;5.75;2.65;;;;;;;;;;5079069;28;20015;-79
2023/06/15 01:00:09;;;;;;;4.43;2.20;;;;;;;;;;5066376;28;20020;-79
2023/06/15 01:02:35;;;;;;;3.15;2.10;;;;;;;;;;5057820;28;20472;-79
2023/06/15 01:05:00;;;;;;;4.22;2.40;;;;;;;;;;5060464;28;20151;-79
2023/06/15 01:07:27;;;;;;;3.30;2.20;;;;;;;;;;5057467;28;20090;-79
2023/06/15 01:09:55;;;;;;;3.60;2.17;;;;;;;;;;5084727;28;20095;-79
2023/06/15 01:12:20;;;;;;;4.25;2.40;;;;;;;;;;5055782;28;20456;-79
2023/06/15 01:14:46;;;;;;;3.65;2.13;;;;;;;;;;5062671;28;20031;-79
2023/06/15 01:17:15;;;;;;;4.97;2.35;;;;;;;;;;5057536;28;20034;-79
2023/06/15 01:20:04;;;;;;;3.28;2.33;;;;;;;;;;5061080;28;20113;-79
2023/06/15 01:22:59;;;;;;;3.70;2.13;;;;;;;;;;5079726;28;20085;-79
2023/06/15 01:25:43;;;;;;;5.15;2.30;;;;;;;;;;5074655;28;20032;-78
2023/06/15 01:28:10;;;;;;;4.00;2.47;;;;;;;;;;5081493;28;20424;-78
2023/06/15 01:30:43;;;;;;;3.72;2.30;;;;;;;;;;5087106;28;20020;-79
2023/06/15 01:33:10;;;;;;;4.05;2.22;;;;;;;;;;5078771;28;20093;-78
2023/06/15 01:35:35;;;;;;;3.67;2.33;;;;;;;;;;5062546;28;20099;-79
2023/06/15 01:38:01;;;;;;;5.25;2.38;;;;;;;;;;5059434;28;20562;-79
2023/06/15 01:40:28;;;;;;;2.95;2.20;;;;;;;;;;5062154;28;20392;-78
2023/06/15 01:42:56;;;;;;;3.80;2.40;;;;;;;;;;5061244;28;20216;-78
2023/06/15 01:45:22;;;;;;;4.88;2.40;;;;;;;;;;5080444;28;20024;-79
2023/06/15 01:47:48;;;;;;;4.75;2.47;;;;;;;;;;5057855;28;20399;-78
2023/06/15 01:50:15;;;;;;;3.28;2.17;;;;;;;;;;5086030;28;20028;-78
2023/06/15 01:52:41;;;;;;;3.50;2.33;;;;;;;;;;5081873;28;20376;-78
2023/06/15 01:55:07;;;;;;;4.03;2.50;;;;;;;;;;5078084;28;20030;-77
2023/06/15 01:57:37;;;;;;;4.80;2.53;;;;;;;;;;5064204;28;20020;-79
2023/06/15 02:00:05;;;;;;;4.20;2.50;;;;;;;;;;5065751;28;20495;-79
2023/06/15 02:02:31;;;;;;;4.30;2.72;;;;;;;;;;5062138;28;20036;-79
2023/06/15 02:04:56;;;;;;;5.75;2.58;;;;;;;;;;5064251;28;20488;-79
2023/06/15 02:07:22;;;;;;;4.97;2.88;;;;;;;;;;5080198;28;20061;-79
2023/06/15 02:09:47;;;;;;;3.92;2.60;;;;;;;;;;5064148;28;20048;-77
2023/06/15 02:12:12;;;;;;;3.58;2.70;;;;;;;;;;5086137;28;20025;-79
2023/06/15 02:14:38;;;;;;;5.15;2.78;;;;;;;;;;5058856;28;20054;-78
2023/06/15 02:17:03;;;;;;;4.38;2.50;;;;;;;;;;5076626;28;20099;-78
2023/06/15 02:19:29;;;;;;;5.70;2.80;;;;;;;;;;5058815;28;20456;-79
2023/06/15 02:21:54;;;;;;;4.25;2.70;;;;;;;;;;5078174;28;20443;-79
2023/06/15 02:24:21;;;;;;;4.78;2.72;;;;;;;;;;5068214;28;20020;-79
2023/06/15 02:26:46;;;;;;;4.43;2.63;;;;;;;;;;5078532;28;20031;-79
2023/06/15 02:29:12;;;;;;;4.35;2.90;;;;;;;;;;5060565;28;20021;-78
2023/06/15 02:31:37;;;;;;;5.18;3.00;;;;;;;;;;5060771;28;20032;-78
2023/06/15 02:34:03;;;;;;;5.35;2.97;;;;;;;;;;5064975;28;20024;-79
2023/06/15 02:36:28;;;;;;;4.18;3.30;;;;;;;;;;5080699;28;20484;-79
2023/06/15 02:38:54;;;;;;;5.35;3.08;;;;;;;;;;5080393;28;20082;-79
2023/06/15 02:41:20;;;;;;;4.35;2.90;;;;;;;;;;5084343;28;20040;-79
2023/06/15 02:43:45;;;;;;;4.03;2.80;;;;;;;;;;5061161;28;20063;-79
2023/06/15 02:46:10;;;;;;;4.28;2.85;;;;;;;;;;5064833;28;20024;-79
2023/06/15 02:48:37;;;;;;;4.18;3.00;;;;;;;;;;5064866;28;20525;-79
2023/06/15 02:51:03;;;;;;;4.43;2.83;;;;;;;;;;5056712;28;20032;-78
2023/06/15 02:53:28;;;;;;;6.05;3.20;;;;;;;;;;5077707;28;20077;-77
2023/06/15 02:55:54;;;;;;;5.15;3.25;;;;;;;;;;5061665;28;20111;-79
2023/06/15 02:58:20;;;;;;;5.05;2.90;;;;;;;;;;5083347;28;20501;-78
2023/06/15 03:00:49;;;;;;;4.60;2.92;;;;;;;;;;5059521;28;20021;-78
2023/06/15 03:03:16;;;;;;;4.13;3.00;;;;;;;;;;5061561;28;20024;-79
2023/06/15 03:05:42;;;;;;;4.05;2.88;;;;;;;;;;5077988;28;20051;-79
2023/06/15 03:08:08;;;;;;;5.25;2.95;;;;;;;;;;5077891;28;20036;-79
2023/06/15 03:10:33;;;;;;;4.53;2.80;;;;;;;;;;5065655;28;20060;-78
2023/06/15 03:12:58;;;;;;;7.45;3.30;;;;;;;;;;5059842;28;20062;-77
2023/06/15 03:15:25;;;;;;;5.07;3.20;;;;;;;;;;5076336;28;20214;-79
2023/06/15 03:17:50;;;;;;;4.75;2.90;;;;;;;;;;5058297;28;20033;-79
2023/06/15 03:20:15;;;;;;;5.50;3.05;;;;;;;;;;5059247;28;20020;-79
2023/06/15 03:22:42;;;;;;;4.55;3.10;;;;;;;;;;5077486;28;20036;-79
2023/06/15 03:25:11;;;;;;;4.78;3.05;;;;;;;;;;5082487;28;20020;-78
2023/06/15 03:27:37;;;;;;;4.78;3.40;;;;;;;;;;5061002;28;20024;-78
2023/06/15 03:30:05;;;;;;;5.45;3.28;;;;;;;;;;5058770;28;20042;-77
2023/06/15 03:32:32;;;;;;;4.90;3.05;;;;;;;;;;5072776;28;20085;-78
2023/06/15 03:34:57;;;;;;;6.35;3.60;;;;;;;;;;5072960;28;20476;-79
2023/06/15 03:37:23;;;;;;;6.95;3.00;;;;;;;;;;5077192;28;20042;-78
2023/06/15 03:39:48;;;;;;;4.57;3.17;;;;;;;;;;5076932;28;20051;-79
2023/06/15 03:42:14;;;;;;;4.50;3.10;;;;;;;;;;5060854;28;20028;-79
2023/06/15 03:44:40;;;;;;;5.90;3.30;;;;;;;;;;5056913;28;20056;-79
2023/06/15 03:47:05;;;;;;;4.30;2.72;;;;;;;;;;5057714;28;20452;-79
2023/06/15 03:49:31;;;;;;;4.25;3.00;;;;;;;;;;5059184;28;20027;-78
2023/06/15 03:51:56;;;;;;;6.53;3.75;;;;;;;;;;5064067;28;20108;-78
2023/06/15 03:54:21;;;;;;;5.32;3.35;;;;;;;;;;5075566;28;20165;-77
2023/06/15 03:56:47;;;;;;;6.45;3.65;;;;;;;;;;5078099;28;20032;-79
2023/06/15 03:59:12;;;;;;;5.70;3.38;;;;;;;;;;5058360;28;20525;-79
2023/06/15 04:01:38;;;;;;;4.95;3.45;;;;;;;;;;5078618;28;20040;-78
2023/06/15 04:04:03;;;;;;;4.90;3.45;;;;;;;;;;5055187;28;20020;-79
2023/06/15 04:06:29;;;;;;;5.20;3.50;;;;;;;;;;5078243;28;20496;-78
2023/06/15 04:08:55;;;;;;;5.43;3.38;;;;;;;;;;5062222;28;20024;-79
2023/06/15 04:11:20;;;;;;;5.05;3.40;;;;;;;;;;5059601;28;20078;-79
2023/06/15 04:13:46;;;;;;;6.38;3.53;;;;;;;;;;5065331;28;20059;-79
2023/06/15 04:16:11;;;;;;;7.15;3.60;;;;;;;;;;5068186;28;20039;-78
2023/06/15 04:18:37;;;;;;;6.25;3.80;;;;;;;;;;5059247;28;20698;-79
2023/06/15 04:21:03;;;;;;;5.18;3.80;;;;;;;;;;5061753;28;20129;-78
2023/06/15 04:23:29;;;;;;;5.40;3.60;;;;;;;;;;5080270;28;20111;-79
2023/06/15 04:25:58;;;;;;;6.88;3.80;;;;;;;;;;5073799;28;20511;-79
2023/06/15 04:28:24;;;;;;;4.93;3.40;;;;;;;;;;5058703;28;20042;-78
2023/06/15 04:30:54;;;;;;;6.38;3.58;;;;;;;;;;5076770;28;20021;-79
2023/06/15 04:33:20;;;;;;;5.18;3.70;;;;;;;;;;5074477;28;20389;-79
2023/06/15 04:35:46;;;;;;;6.35;3.72;;;;;;;;;;5072325;28;20021;-78
2023/06/15 04:38:14;;;;;;;6.60;3.92;;;;;;;;;;5064935;28;20019;-78
2023/06/15 04:40:41;;;;;;;6.75;3.90;;;;;;;;;;5074025;28;20039;-79
2023/06/15 04:43:08;;;;;;;5.95;3.80;;;;;;;;;;5079925;28;20495;-78
2023/06/15 04:45:34;;;;;;;5.43;3.70;;;;;;;;;;5080440;28;20032;-79
2023/06/15 04:47:59;;;;;;;5.07;3.58;;;;;;;;;;5061693;28;20031;-78
2023/06/15 04:50:24;;;;;;;6.70;4.20;;;;;;;;;;5059638;28;20162;-78
2023/06/15 04:52:50;;;;;;;10.15;4.10;;;;;;;;;;5075729;28;20416;-79
2023/06/15 04:55:16;;;;;;;8.10;4.20;;;;;;;;;;5069733;28;20032;-79
2023/06/15 04:57:41;;;;;;;9.90;4.68;;;;;;;;;;5060720;28;20024;-78
2023/06/15 05:00:08;;;;;;;6.75;3.97;;;;;;;;;;5065935;28;20020;-77
2023/06/15 05:02:33;;;;;;;8.93;4.32;;;;;;;;;;5074027;28;20557;-78
2023/06/15 05:04:58;;;;;;;6.72;3.70;;;;;;;;;;5081152;28;20024;-78
2023/06/15 05:07:24;;;;;;;6.95;4.18;;;;;;;;;;5064681;28;20101;-79
2023/06/15 05:09:49;;;;;;;8.18;4.40;;;;;;;;;;5077175;28;20031;-77
2023/06/15 05:12:14;;;;;;;5.55;4.00;;;;;;;;;;5065147;28;20028;-79
2023/06/15 05:14:40;;;;;;;6.43;3.88;;;;;;;;;;5080562;28;20043;-77
2023/06/15 05:17:05;;;;;;;8.13;4.40;;;;;;;;;;5081230;28;20036;-78
2023/06/15 05:19:31;;;;;;;9.98;4.40;;;;;;;;;;5064971;28;20030;-78
2023/06/15 05:22:01;;;;;;;5.90;3.70;;;;;;;;;;5078892;28;20029;-78
2023/06/15 05:24:27;;;;;;;5.75;4.18;;;;;;;;;;5068378;28;20093;-78
2023/06/15 05:26:53;;;;;;;8.20;3.90;;;;;;;;;;5079201;28;20028;-78
2023/06/15 05:29:19;;;;;;;4.57;3.42;;;;;;;;;;5065866;28;20027;-78
2023/06/15 05:31:44;;;;;;;8.30;4.22;;;;;;;;;;5064848;28;20020;-78
2023/06/15 05:34:10;;;;;;;6.68;4.47;;;;;;;;;;5079662;28;20016;-77
2023/06/15 05:36:35;;;;;;;6.32;3.80;;;;;;;;;;5076779;28;20110;-78
2023/06/15 05:39:01;;;;;;;6.88;4.00;;;;;;;;;;5061717;28;20020;-78
2023/06/15 05:41:26;;;;;;;6.43;3.90;;;;;;;;;;5062384;28;20036;-78
2023/06/15 05:43:52;;;;;;;5.90;4.07;;;;;;;;;;5073423;28;20022;-79
2023/06/15 05:46:17;;;;;;;7.40;3.72;;;;;;;;;;5062883;28;20487;-78
2023/06/15 05:48:42;;;;;;;8.90;4.65;;;;;;;;;;5078546;28;20021;-77
2023/06/15 05:51:08;;;;;;;6.45;3.67;;;;;;;;;;5062906;28;20028;-77
2023/06/15 05:53:33;;;;;;;6.68;4.00;;;;;;;;;;5069273;28;20049;-78
2023/06/15 05:55:58;;;;;;;6.28;3.67;;;;;;;;;;5061078;28;20074;-78
2023/06/15 05:58:24;;;;;;;7.15;5.07;;;;;;;;;;5063828;28;20492;-78
2023/06/15 06:00:49;;;;;;;6.07;4.25;;;;;;;;;;5056061;28;20137;-78
2023/06/15 06:03:15;;;;;;;5.32;3.80;;;;;;;;;;5062582;28;20036;-77
2023/06/15 06:05:40;;;;;;;6.55;4.50;;;;;;;;;;5052963;28;20043;-78
2023/06/15 06:08:06;;;;;;;9.07;3.65;;;;;;;;;;5055474;28;20028;-78
2023/06/15 06:10:31;;;;;;;7.78;5.13;;;;;;;;;;5059099;28;20303;-79
2023/06/15 06:12:57;;;;;;;7.05;4.03;;;;;;;;;;5090031;28;20085;-79
2023/06/15 06:15:23;;;;;;;9.20;5.25;;;;;;;;;;5080280;28;20568;-79
2023/06/15 06:17:48;;;;;;;6.82;4.53;;;;;;;;;;5068328;28;20123;-78
2023/06/15 06:20:14;;;;;;;7.55;5.20;;;;;;;;;;5059652;28;20067;-78
2023/06/15 06:22:40;;;;;;;6.78;4.40;;;;;;;;;;5089958;28;20035;-78
2023/06/15 06:25:05;;;;;;;6.03;5.20;;;;;;;;;;5102383;28;20020;-79
2023/06/15 06:27:31;;;;;;;6.53;4.88;;;;;;;;;;5103784;28;20024;-79
2023/06/15 06:29:58;;;;;;;7.93;4.00;;;;;;;;;;5087533;28;20042;-77
2023/06/15 06:32:23;;;;;;;9.48;4.78;;;;;;;;;;5084639;28;20075;-78
2023/06/15 06:34:48;;;;;;;7.00;4.00;;;;;;;;;;5079995;28;20017;-81
2023/06/15 06:37:14;;;;;;;7.05;4.88;;;;;;;;;;5086400;28;20082;-77
2023/06/15 06:39:39;;;;;;;10.63;4.90;;;;;;;;;;5100584;28;20035;-77
2023/06/15 06:42:05;;;;;;;7.82;5.00;;;;;;;;;;5077663;28;20086;-76
2023/06/15 06:44:31;;;;;;;6.13;4.38;;;;;;;;;;5101870;28;20155;-80
2023/06/15 06:46:56;;;;;;;8.48;4.82;;;;;;;;;;5095531;28;20027;-78
2023/06/15 06:49:22;;;;;;;8.50;5.18;;;;;;;;;;5055858;28;1101292;-79
2023/06/15 06:51:47;;;;;;;7.35;4.05;;;;;;;;;;5085519;28;20055;-79
2023/06/15 06:54:12;;;;;;;9.15;5.20;;;;;;;;;;5100270;28;20051;-78
2023/06/15 06:56:38;;;;;;;7.57;5.13;;;;;;;;;;5078059;28;20028;-79
2023/06/15 06:59:03;;;;;;;9.52;4.80;;;;;;;;;;5106343;28;20028;-79
2023/06/15 07:01:28;;;;;;;5.97;4.50;;;;;;;;;;5095437;28;20112;-78
2023/06/15 07:03:54;;;;;;;8.63;4.30;;;;;;;;;;5095991;28;20032;-78
2023/06/15 07:06:19;;;;;;;6.40;4.43;;;;;;;;;;5087445;28;20036;-79
2023/06/15 07:08:46;;;;;;;7.22;4.68;;;;;;;;;;5097918;28;20051;-78
2023/06/15 07:11:12;;;;;;;8.77;4.50;;;;;;;;;;5083181;28;20020;-78
2023/06/15 07:13:37;;;;;;;8.73;4.55;;;;;;;;;;5102913;28;20031;-80
2023/06/15 07:16:04;;;;;;;7.75;4.18;;;;;;;;;;5081856;28;20032;-79
2023/06/15 07:18:29;;;;;;;7.00;4.60;;;;;;;;;;5084019;28;20051;-79
2023/06/15 07:20:55;;;;;;;7.47;4.15;;;;;;;;;;5082032;28;20032;-80
2023/06/15 07:23:24;;;;;;;12.18;4.32;;;;;;;;;;5079526;28;20040;-78
2023/06/15 07:25:53;;;;;;;7.55;4.65;;;;;;;;;;5076243;28;20459;-79
2023/06/15 07:28:19;;;;;;;6.05;4.10;;;;;;;;;;5083440;28;20026;-80
2023/06/15 07:30:48;;;;;;;6.65;3.97;;;;;;;;;;5098521;28;20054;-77
2023/06/15 07:33:13;;;;;;;6.60;4.18;;;;;;;;;;5083093;28;20020;-79
2023/06/15 07:35:39;;;;;;;7.90;4.30;;;;;;;;;;5099891;28;20047;-79
2023/06/15 07:38:04;;;;;;;9.45;4.55;;;;;;;;;;5085452;28;20038;-80
2023/06/15 07:40:30;;;;;;;7.15;3.92;;;;;;;;;;5095317;28;20028;-78
2023/06/15 07:42:55;;;;;;;7.35;3.92;;;;;;;;;;5080365;28;20099;-79
2023/06/15 07:45:21;;;;;;;6.72;3.95;;;;;;;;;;5086007;28;20020;-79
2023/06/15 07:47:46;;;;;;;7.70;3.58;;;;;;;;;;5095059;28;20142;-79
2023/06/15 07:50:11;;;;;;;9.05;4.45;;;;;;;;;;5084787;28;20016;-78
2023/06/15 07:52:37;;;;;;;5.95;3.63;;;;;;;;;;5097209;28;20031;-78
2023/06/15 07:55:03;;;;;;;7.70;3.70;;;;;;;;;;5097224;28;20083;-79
2023/06/15 07:57:29;;;;;;;8.45;4.03;;;;;;;;;;5080411;28;20089;-78
2023/06/15 07:59:54;;;;;;;5.88;3.60;;;;;;;;;;5088994;28;20036;-78
2023/06/15 08:02:20;;;;;;;5.35;3.70;;;;;;;;;;5108968;28;20012;-79
2023/06/15 08:04:45;;;;;;;8.38;3.28;;;;;;;;;;5081409;28;20016;-77
2023/06/15 08:07:12;;;;;;;11.23;3.80;;;;;;;;;;5082735;28;20038;-77
2023/06/15 08:09:37;;;;;;;6.43;3.60;;;;;;;;;;5113053;28;20016;-80
2023/06/15 08:12:03;;;;;;;6.18;3.00;;;;;;;;;;5093065;28;20199;-78
2023/06/15 08:14:28;;;;;;;6.00;3.60;;;;;;;;;;5085742;28;20100;-77
2023/06/15 08:16:54;;;;;;;5.60;2.97;;;;;;;;;;5097126;28;20032;-79
2023/06/15 08:19:20;;;;;;;6.95;3.30;;;;;;;;;;5081421;28;20028;-79
2023/06/15 08:21:45;;;;;;;7.22;3.25;;;;;;;;;;5083021;28;20272;-80
2023/06/15 08:24:12;;;;;;;5.20;3.05;;;;;;;;;;5080113;28;20054;-78
2023/06/15 08:26:37;;;;;;;10.13;3.17;;;;;;;;;;5095996;28;20096;-79
2023/06/15 08:29:03;;;;;;;6.45;3.03;;;;;;;;;;5092533;28;20024;-79
2023/06/15 08:31:30;;;;;;;8.05;3.17;;;;;;;;;;5096715;28;20032;-77
2023/06/15 08:33:55;;;;;;;7.90;3.35;;;;;;;;;;5086389;28;20061;-79
2023/06/15 08:36:22;;;;;;;5.90;2.78;;;;;;;;;;5080075;28;20055;-80
2023/06/15 08:38:48;;;;;;;5.80;3.03;;;;;;;;;;5102293;28;20080;-78
2023/06/15 08:41:13;;;;;;;8.30;2.90;;;;;;;;;;5097266;28;20029;-78
2023/06/15 08:43:43;;;;;;;4.75;2.72;;;;;;;;;;5079873;28;20028;-79
2023/06/15 08:46:08;;;;;;;4.88;2.85;;;;;;;;;;5098007;28;20017;-79
2023/06/15 08:48:35;;;;;;;6.57;2.83;;;;;;;;;;5106362;28;20008;-79
2023/06/15 08:51:01;;;;;;;5.57;3.67;;;;;;;;;;5077377;28;20061;-79
2023/06/15 08:53:28;;;;;;;4.80;2.92;;;;;;;;;;5102046;28;20027;-78
2023/06/15 08:55:54;;;;;;;5.40;2.80;;;;;;;;;;5082557;28;20103;-79
2023/06/15 08:58:19;;;;;;;5.38;2.70;;;;;;;;;;5101257;28;20028;-79
2023/06/15 09:00:44;;;;;;;3.65;2.42;;;;;;;;;;5097914;28;20032;-78
2023/06/15 09:03:11;;;;;;;4.95;3.00;;;;;;;;;;5070372;28;20523;-77
2023/06/15 09:05:36;;;;;;;5.95;2.95;;;;;;;;;;5062718;28;20379;-77
2023/06/15 09:08:03;;;;;;;9.30;2.85;;;;;;;;;;5060291;28;20032;-77
2023/06/15 09:10:29;;;;;;;7.07;2.90;;;;;;;;;;5065519;28;20032;-77
2023/06/15 09:12:56;;;;;;;7.50;3.05;;;;;;;;;;5085058;28;20028;-77
2023/06/15 09:15:27;;;;;;;4.18;2.60;;;;;;;;;;5061061;28;20346;-77
2023/06/15 09:17:54;;;;;;;7.10;3.28;;;;;;;;;;5087355;28;20472;-77
2023/06/15 09:20:21;;;;;;;7.43;2.88;;;;;;;;;;5069501;28;20158;-77
2023/06/15 09:22:47;;;;;;;5.38;2.60;;;;;;;;;;5069103;28;20028;-77
2023/06/15 09:25:20;;;;;;;5.75;2.80;;;;;;;;;;5074685;28;20034;-77
2023/06/15 09:27:57;;;;;;;4.53;2.80;;;;;;;;;;5068493;28;20032;-77
2023/06/15 09:30:32;;;;;;;4.05;2.58;;;;;;;;;;5090386;28;20044;-77
2023/06/15 09:33:14;;;;;;;8.23;3.00;;;;;;;;;;5064968;28;20476;-77
2023/06/15 09:36:00;;;;;;;6.35;3.05;;;;;;;;;;5077694;28;20026;-78
2023/06/15 09:38:31;;;;;;;4.32;2.97;;;;;;;;;;5066679;28;20258;-78
2023/06/15 09:41:05;;;;;;;4.65;2.63;;;;;;;;;;5073218;28;20047;-77
2023/06/15 09:43:34;;;;;;;7.53;2.55;;;;;;;;;;5082967;28;20036;-77
2023/06/15 09:46:00;;;;;;;7.55;2.90;;;;;;;;;;5088643;28;20084;-77
2023/06/15 09:48:26;;;;;;;4.07;2.58;;;;;;;;;;5072618;28;20031;-77
2023/06/15 09:50:52;;;;;;;5.20;2.47;;;;;;;;;;5071679;28;20050;-78
2023/06/15 09:53:18;;;;;;;6.35;2.95;;;;;;;;;;5076271;28;20028;-77
2023/06/15 09:55:47;;;;;;;5.15;2.50;;;;;;;;;;5088174;28;20035;-77
2023/06/15 09:58:13;;;;;;;8.05;3.03;;;;;;;;;;5096383;28;20039;-77
2023/06/15 10:00:38;;;;;;;6.72;2.60;;;;;;;;;;5086375;28;20025;-77
2023/06/15 10:03:06;;;;;;;3.55;2.45;;;;;;;;;;5066868;28;20020;-77
2023/06/15 10:05:33;;;;;;;5.00;2.70;;;;;;;;;;5064811;28;20063;-77
2023/06/15 10:08:02;;;;;;;6.57;2.78;;;;;;;;;;5084853;28;20070;-77
2023/06/15 10:10:29;;;;;;;6.28;2.72;;;;;;;;;;5073510;28;20031;-77
2023/06/15 10:12:57;;;;;;;5.47;2.67;;;;;;;;;;5074206;28;20021;-78
2023/06/15 10:15:24;;;;;;;4.28;3.00;;;;;;;;;;5067098;28;20032;-77
2023/06/15 10:17:52;;;;;;;4.93;2.78;;;;;;;;;;5066980;28;20115;-77
2023/06/15 10:20:21;;;;;;;4.93;2.72;;;;;;;;;;5080094;28;20025;-77
2023/06/15 10:23:07;;;;;;;6.60;2.70;;;;;;;;;;5068488;28;20021;-77
2023/06/15 10:25:33;;;;;;;4.10;2.92;;;;;;;;;;5084036;28;20048;-77
2023/06/15 10:28:02;;;;;;;6.00;2.42;;;;;;;;;;5065145;28;20032;-77
2023/06/15 10:30:46;;;;;;;6.03;2.80;;;;;;;;;;5060086;28;20031;-77
2023/06/15 10:33:49;;;;;;;4.78;2.65;;;;;;;;;;5087728;28;20020;-77
2023/06/15 10:36:29;;;;;;;3.53;2.60;;;;;;;;;;5063745;28;20481;-77
2023/06/15 10:39:01;;;;;;;4.90;2.55;;;;;;;;;;5082692;28;20110;-77
2023/06/15 10:41:27;;;;;;;3.97;2.42;;;;;;;;;;5087908;28;20049;-77
2023/06/15 10:44:00;;;;;;;7.03;2.58;;;;;;;;;;5082789;28;20036;-77
2023/06/15 10:46:30;;;;;;;6.72;2.72;;;;;;;;;;5083627;28;20025;-77
2023/06/15 10:49:03;;;;;;;4.00;2.47;;;;;;;;;;5084536;28;20024;-77
2023/06/15 10:51:29;;;;;;;5.13;2.55;;;;;;;;;;5067675;28;20031;-77
2023/06/15 10:53:55;;;;;;;6.90;2.58;;;;;;;;;;5081380;28;20115;-77
2023/06/15 10:56:21;;;;;;;4.05;2.40;;;;;;;;;;5065033;28;20387;-77
2023/06/15 10:58:57;;;;;;;6.68;2.40;;;;;;;;;;5069893;28;20031;-77
2023/06/15 11:01:24;;;;;;;5.30;2.85;;;;;;;;;;5072437;28;20393;-74
2023/06/15 11:03:51;;;;;;;4.95;2.35;;;;;;;;;;5090038;28;20060;-76
2023/06/15 11:06:21;;;;;;;6.57;2.55;;;;;;;;;;5094505;28;20576;-77
2023/06/15 11:08:51;;;;;;;5.60;3.03;;;;;;;;;;5085401;28;20059;-76
2023/06/15 11:11:30;;;;;;;3.45;2.35;;;;;;;;;;5091539;28;20028;-77
2023/06/15 11:14:02;;;;;;;4.38;2.65;;;;;;;;;;5077692;28;20087;-74
2023/06/15 11:16:38;;;;;;;4.72;2.75;;;;;;;;;;5079883;28;20029;-74
2023/06/15 11:19:10;;;;;;;5.47;2.63;;;;;;;;;;5077986;28;20031;-75
2023/06/15 11:21:40;;;;;;;4.15;2.70;;;;;;;;;;5078356;28;20083;-75
2023/06/15 11:24:06;;;;;;;5.63;2.63;;;;;;;;;;5093177;28;20032;-75
2023/06/15 11:26:33;;;;;;;4.55;2.60;;;;;;;;;;5087454;28;20035;-75
2023/06/15 11:29:01;;;;;;;6.57;2.90;;;;;;;;;;5097818;28;20155;-75
2023/06/15 11:31:27;;;;;;;4.68;2.60;;;;;;;;;;5097905;28;20028;-75
2023/06/15 11:33:52;;;;;;;4.18;2.58;;;;;;;;;;5076442;28;20031;-75
2023/06/15 11:36:18;;;;;;;5.53;2.42;;;;;;;;;;5076375;28;20492;-75
2023/06/15 11:38:43;;;;;;;7.75;2.63;;;;;;;;;;5078403;28;20036;-75
2023/06/15 11:41:10;;;;;;;7.35;2.55;;;;;;;;;;5095624;28;20024;-74
2023/06/15 11:43:48;;;;;;;5.75;2.58;;;;;;;;;;5081075;28;20031;-75
2023/06/15 11:46:19;;;;;;;3.65;2.50;;;;;;;;;;5096322;28;20025;-76
2023/06/15 11:48:46;;;;;;;5.90;3.38;;;;;;;;;;5098936;28;20048;-75
2023/06/15 11:51:13;;;;;;;6.25;3.50;;;;;;;;;;5091924;28;20023;-75
2023/06/15 11:53:40;;;;;;;4.43;2.45;;;;;;;;;;5089267;28;20028;-76
2023/06/15 11:56:13;;;;;;;6.97;2.75;;;;;;;;;;5090911;28;20103;-75
2023/06/15 11:58:40;;;;;;;6.80;2.65;;;;;;;;;;5084258;28;20091;-75
2023/06/15 12:01:06;;;;;;;3.65;2.58;;;;;;;;;;5082607;28;20542;-75
2023/06/15 12:03:32;;;;;;;4.40;2.70;;;;;;;;;;5082515;28;20020;-75
2023/06/15 12:05:58;;;;;;;5.75;2.70;;;;;;;;;;5069649;28;20020;-76
2023/06/15 12:08:27;;;;;;;5.30;2.70;;;;;;;;;;5066145;28;20028;-75
2023/06/15 12:10:53;;;;;;;4.30;2.67;;;;;;;;;;5084071;28;20024;-75
2023/06/15 12:13:18;;;;;;;4.60;2.30;;;;;;;;;;5087486;28;20036;-75
2023/06/15 12:15:47;;;;;;;3.92;2.40;;;;;;;;;;5089494;28;20024;-76
2023/06/15 12:18:13;;;;;;;5.05;2.60;;;;;;;;;;5092327;28;20044;-74
2023/06/15 12:20:39;;;;;;;3.45;2.33;;;;;;;;;;5083657;28;20025;-74
2023/06/15 12:23:05;;;;;;;3.85;2.20;;;;;;;;;;5086494;28;20034;-75
2023/06/15 12:25:47;;;;;;;6.72;2.60;;;;;;;;;;5065688;28;20472;-76
2023/06/15 12:28:14;;;;;;;4.97;2.42;;;;;;;;;;5073116;28;20403;-74
2023/06/15 12:30:40;;;;;;;4.63;2.65;;;;;;;;;;5090196;28;20046;-75
2023/06/15 12:33:05;;;;;;;5.07;2.63;;;;;;;;;;5093644;28;20031;-75
2023/06/15 12:35:37;;;;;;;3.83;2.50;;;;;;;;;;5081121;28;20027;-75
2023/06/15 12:38:06;;;;;;;5.07;2.80;;;;;;;;;;5074549;28;20373;-75
2023/06/15 12:40:31;;;;;;;4.75;2.63;;;;;;;;;;5065953;28;20020;-76
2023/06/15 12:43:01;;;;;;;5.18;2.72;;;;;;;;;;5074139;28;20032;-75
2023/06/15 12:45:27;;;;;;;6.18;2.70;;;;;;;;;;5088521;28;20101;-75
2023/06/15 12:47:53;;;;;;;7.03;2.85;;;;;;;;;;5069440;28;20020;-75
2023/06/15 12:50:19;;;;;;;6.20;2.83;;;;;;;;;;5070174;28;20024;-75
2023/06/15 12:52:45;;;;;;;6.70;2.78;;;;;;;;;;5087357;28;20096;-76
2023/06/15 12:55:11;;;;;;;7.25;2.92;;;;;;;;;;5088856;28;20055;-75
2023/06/15 12:57:36;;;;;;;5.22;2.63;;;;;;;;;;5070240;28;20032;-76
2023/06/15 13:00:02;;;;;;;4.90;2.70;;;;;;;;;;5070668;28;20013;-75
2023/06/15 13:02:27;;;;;;;3.88;2.80;;;;;;;;;;5072710;28;20036;-77
2023/06/15 13:04:56;;;;;;;4.05;2.60;;;;;;;;;;5086524;28;20028;-77
2023/06/15 13:07:24;;;;;;;4.20;2.80;;;;;;;;;;5086908;28;20026;-75
2023/06/15 13:09:50;;;;;;;6.28;2.53;;;;;;;;;;5073394;28;20050;-75
2023/06/15 13:12:15;;;;;;;5.82;2.53;;;;;;;;;;5090013;28;20027;-75
2023/06/15 13:14:41;;;;;;;4.43;2.42;;;;;;;;;;5071186;28;20025;-74
2023/06/15 13:17:06;;;;;;;3.58;2.20;;;;;;;;;;5072611;28;20040;-74
2023/06/15 13:19:32;;;;;;;5.57;2.38;;;;;;;;;;5073545;28;20029;-76
2023/06/15 13:21:57;;;;;;;5.57;2.55;;;;;;;;;;5068950;28;20021;-75
2023/06/15 13:24:22;;;;;;;4.07;2.90;;;;;;;;;;5092866;28;20032;-75
2023/06/15 13:26:48;;;;;;;5.65;2.70;;;;;;;;;;5100430;28;20024;-75
2023/06/15 13:29:13;;;;;;;6.22;2.95;;;;;;;;;;5067990;28;20054;-75
2023/06/15 13:31:39;;;;;;;5.03;2.72;;;;;;;;;;5087285;28;20020;-74
2023/06/15 13:34:06;;;;;;;4.65;2.60;;;;;;;;;;5093449;28;20016;-75
2023/06/15 13:36:32;;;;;;;4.90;2.78;;;;;;;;;;5075161;28;20024;-76
2023/06/15 13:38:57;;;;;;;4.85;2.88;;;;;;;;;;5091181;28;20063;-77
2023/06/15 13:41:23;;;;;;;4.78;2.55;;;;;;;;;;5090512;28;20085;-75
2023/06/15 13:43:48;;;;;;;4.85;2.78;;;;;;;;;;5081626;28;20029;-75
2023/06/15 13:46:13;;;;;;;5.70;2.53;;;;;;;;;;5071176;28;20114;-75
2023/06/15 13:48:39;;;;;;;5.20;2.60;;;;;;;;;;5087440;28;20025;-74
2023/06/15 13:51:04;;;;;;;6.43;2.55;;;;;;;;;;5068423;28;20030;-76
2023/06/15 13:53:30;;;;;;;4.93;2.45;;;;;;;;;;5089140;28;20473;-74
2023/06/15 13:55:55;;;;;;;3.38;2.60;;;;;;;;;;5102103;28;20020;-75
2023/06/15 13:58:21;;;;;;;4.32;2.67;;;;;;;;;;5074293;28;20395;-75
2023/06/15 14:00:47;;;;;;;7.43;2.60;;;;;;;;;;5087942;28;20024;-74
2023/06/15 14:03:12;;;;;;;4.75;2.50;;;;;;;;;;5073789;28;20133;-74
2023/06/15 14:05:37;;;;;;;8.43;2.70;;;;;;;;;;5075069;28;20311;-75
2023/06/15 14:08:03;;;;;;;6.38;3.33;;;;;;;;;;5090524;28;20031;-75
2023/06/15 14:10:28;;;;;;;5.20;2.60;;;;;;;;;;5094161;28;20024;-75
2023/06/15 14:12:54;;;;;;;6.85;2.65;;;;;;;;;;5082854;28;20027;-74
2023/06/15 14:15:19;;;;;;;5.00;2.53;;;;;;;;;;5099540;28;20032;-75
2023/06/15 14:17:45;;;;;;;4.28;2.50;;;;;;;;;;5076192;28;20091;-75
2023/06/15 14:20:11;;;;;;;4.60;2.47;;;;;;;;;;5069046;28;20127;-74
2023/06/15 14:22:36;;;;;;;3.63;2.42;;;;;;;;;;5089189;28;20036;-74
2023/06/15 14:25:02;;;;;;;4.35;2.10;;;;;;;;;;5091325;28;20032;-75
2023/06/15 14:27:27;;;;;;;6.03;2.55;;;;;;;;;;5065638;28;20383;-76
2023/06/15 14:29:53;;;;;;;4.88;2.40;;;;;;;;;;5083515;28;20108;-74
2023/06/15 14:32:18;;;;;;;4.10;2.22;;;;;;;;;;5072180;28;20028;-74
2023/06/15 14:34:43;;;;;;;4.40;2.25;;;;;;;;;;5089444;28;20166;-75
2023/06/15 14:37:10;;;;;;;2.72;2.13;;;;;;;;;;5088974;28;20052;-75
2023/06/15 14:39:35;;;;;;;4.13;2.40;;;;;;;;;;5066432;28;20036;-75
2023/06/15 14:42:01;;;;;;;5.55;2.40;;;;;;;;;;5087147;28;20031;-76